Scottsdale, AZ

12:33 AM MST on September 01, 2014 (GMT -0700)
Scottsdale | Change Station
CLOSE
Current Station
Airport
Location: Scottsdale,
Elevation: 1509 ft
Nearby Weather Stations

Elev 1509 ft 33.62 °N, 111.91 °W | Updated 40 minutes ago

Clear
Clear
90 °F
Feels Like 90 °F
N
4
Wind Variable Wind from NNE

Today
High -- | Low -- °F
--% Chance of Precip.
Yesterday
High -- | Low -- °F
Precip. -- in
6:01 AM 6:52 PM
Waxing Crescent, 38% visible
Pressure 29.73 in
Visibility 10.0 miles
Clouds Clear
Dew Point 47 °F
Humidity 23%
Rainfall 0.00 in
Snow Depth Not available.
UV 0 out of 12
Pollen 5.30 out of 12
Ozone Good
PM2.5 Good
Flu Activity Not available.
METAR KSDL 010653Z 03003KT 10SM CLR 32/08 A2981 RMK AO2 SLP065 T03220083 404060261

More Conditions Fewer Conditions

Pressure 29.73 in
Visibility 10.0 miles
Clouds Clear
Dew Point 47 °F
Humidity 23%
Rainfall 0.00 in
Snow Depth Not available.
UV 0 out of 12
Pollen 5.30 out of 12
Ozone Good
PM2.5 Good
Flu Activity Not available.
METAR KSDL 010653Z 03003KT 10SM CLR 32/08 A2981 RMK AO2 SLP065 T03220083 404060261

More Conditions Fewer Conditions

10-Day Weather Forecast

Almanac

Astronomy

Sep. 01, 2014 Rise Set
Actual Time 6:01 AM MST 6:52 PM MST
Civil Twilight 5:36 AM MST 7:18 PM MST
Nautical Twilight 5:06 AM MST 7:48 PM MST
Astronomical Twilight 4:35 AM MST 8:19 PM MST
Moon 12:31 PM MST 11:17 PM MST
Length of Visible Light 13h 42m
Length of Day
12h 51m
Tomorrow will be 1m 59s shorter.
Waxing Crescent, 38% of the Moon is Illuminated
Today
Waxing Crescent
Sep 2
First Quarter
Sep 8
Full
Sep 15
Last Quarter
Sep 24
New

Today's Extremes

State Highs State Lows

Community

WunderPhotos

Upload Photos

1,749,154 photos uploaded!

Nearby

Air Quality

  Air Quality AQ Index Pollutant
Yesterday Moderate
OZONE
Yesterday Good
PM10
Current Good
PM2.5
Current Good
OZONE
Sunday Moderate
OZONE
Sunday Good
PM10
Sunday Good
CO
Monday Moderate
OZONE
Monday Good
PM10
Monday Good
CO
Tuesday Moderate
OZONE
Tuesday Good
PM10
Tuesday Good
CO

Snow Depth

Station Depth Elevation
Workman Creek 1 in 6900 ft
Promontory 0 in 7930 ft
Mormon Mountain 0 in 7500 ft
White Horse Lake 0 in 7180 ft
Snowslide Canyon 0 in 9730 ft

Earthquake Activity

City Distance Mag. Time & Date
No recent earthquake activity has been reported nearby.
Minimum magnitude displayed is 2.5.

Coastal Water Temperatures

Place Temperature
No Stations Reporting

Nearby Weather Stations